createdAt,value
2022-07-26T01:54:12.742Z,17.10
2022-07-26T01:59:06.987Z,16.90
2022-07-26T02:01:39.696Z,16.80
2022-07-26T02:04:08.210Z,16.70
2022-07-26T02:09:05.224Z,16.70
2022-07-26T02:11:34.313Z,16.70
2022-07-26T02:14:02.435Z,16.70
2022-07-26T02:16:29.329Z,16.70
2022-07-26T03:03:16.766Z,16.70
2022-07-26T03:05:43.549Z,16.70
2022-07-26T03:08:10.634Z,16.70
2022-07-26T03:10:37.451Z,16.80
2022-07-26T05:40:57.622Z,17.50
2022-07-26T06:27:40.590Z,17.00
2022-07-26T06:30:08.539Z,17.00
2022-07-26T06:32:35.357Z,17.00
2022-07-26T06:35:02.297Z,17.00
2022-07-26T06:37:29.235Z,17.00
2022-07-26T06:39:56.143Z,17.00
2022-07-26T06:42:24.145Z,17.10
2022-07-26T06:44:50.896Z,17.30
2022-07-26T06:47:17.718Z,17.40
2022-07-26T06:49:44.874Z,17.50
2022-07-26T06:52:11.717Z,17.50
2022-07-26T06:54:38.471Z,17.50
2022-07-26T06:57:05.377Z,17.50
2022-07-26T06:59:32.247Z,17.60
2022-07-26T07:02:00.546Z,17.70
2022-07-26T07:04:32.008Z,17.90
2022-07-26T07:07:05.211Z,18.00
2022-07-26T07:09:33.649Z,18.20
2022-07-26T07:12:10.093Z,18.30
2022-07-26T07:14:38.431Z,18.30
2022-07-26T07:17:12.058Z,18.30
2022-07-26T07:19:40.039Z,18.30
2022-07-26T07:22:11.535Z,18.30
2022-07-26T07:24:39.205Z,18.20
2022-07-26T07:27:06.791Z,18.20
2022-07-26T07:29:34.168Z,18.20
2022-07-26T07:32:03.367Z,18.10
2022-07-26T07:34:30.648Z,18.00
2022-07-26T07:36:57.634Z,17.90
2022-07-26T07:39:34.438Z,17.90
2022-07-26T07:42:01.796Z,17.80
2022-07-26T07:44:28.640Z,17.70
2022-07-26T07:46:55.526Z,17.70
2022-07-26T07:49:22.676Z,17.70
2022-07-26T07:51:49.669Z,17.70
2022-07-26T07:54:16.777Z,17.70
2022-07-26T07:56:43.908Z,17.50
2022-07-26T07:59:11.203Z,17.50
2022-07-26T08:01:39.441Z,17.50
2022-07-26T08:04:08.704Z,17.50
2022-07-26T08:06:36.264Z,17.50
2022-07-26T08:09:05.372Z,17.60
2022-07-26T08:11:33.769Z,17.60
2022-07-26T08:14:01.334Z,17.60
2022-07-26T08:16:28.611Z,17.60
2022-07-26T08:18:57.576Z,17.70
2022-07-26T08:21:28.324Z,17.80
2022-07-26T08:23:59.027Z,18.00
2022-07-26T08:26:25.840Z,18.10
2022-07-26T08:29:00.276Z,18.20
2022-07-26T08:31:28.853Z,18.30
2022-07-26T08:33:56.071Z,18.40
2022-07-26T08:36:23.823Z,18.60
2022-07-26T08:38:50.974Z,18.70
2022-07-26T08:41:18.433Z,18.90
2022-07-26T08:43:51.967Z,19.00
2022-07-26T08:46:26.407Z,19.10
2022-07-26T08:48:54.565Z,19.20
2022-07-26T08:51:24.370Z,19.20
2022-07-26T08:53:54.470Z,19.10
2022-07-26T08:56:21.368Z,19.10
2022-07-26T08:58:48.160Z,19.10
2022-07-26T09:01:15.300Z,19.10
2022-07-26T09:03:43.082Z,19.00
2022-07-26T09:06:18.266Z,19.00
2022-07-26T09:08:48.249Z,19.10
2022-07-26T09:11:24.066Z,19.20
2022-07-26T09:13:53.147Z,19.20
2022-07-26T09:16:20.918Z,19.20
2022-07-26T09:18:47.836Z,19.20
2022-07-26T09:21:31.885Z,19.20
2022-07-26T09:23:59.750Z,19.20
2022-07-26T09:26:27.315Z,19.20
2022-07-26T09:29:12.344Z,19.30
2022-07-26T09:35:51.056Z,19.30
2022-07-26T09:38:17.683Z,19.50
2022-07-26T09:40:45.664Z,19.60
2022-07-26T09:43:22.266Z,19.70
2022-07-26T09:46:06.111Z,19.70
2022-07-26T09:48:59.345Z,19.70
2022-07-26T09:51:36.540Z,19.50
2022-07-26T09:54:04.062Z,19.50
2022-07-26T09:56:45.287Z,19.40
2022-07-26T09:59:14.277Z,19.30
2022-07-26T10:01:41.380Z,19.30
2022-07-26T10:04:08.436Z,19.30
2022-07-26T10:06:35.738Z,19.30
2022-07-26T10:09:04.127Z,19.30
2022-07-26T10:11:42.036Z,19.30
2022-07-26T10:14:33.830Z,19.30
2022-07-26T10:17:01.911Z,19.30
2022-07-26T10:19:45.232Z,19.40
2022-07-26T10:22:27.487Z,19.50
2022-07-26T10:24:58.219Z,19.60
2022-07-26T10:27:42.808Z,19.60
2022-07-26T10:30:22.741Z,19.70
2022-07-26T10:33:02.420Z,19.60
2022-07-26T10:35:41.306Z,19.50
2022-07-26T10:38:10.705Z,19.50
2022-07-26T10:40:39.414Z,19.50
2022-07-26T10:43:39.697Z,19.60
2022-07-26T10:46:16.550Z,19.60
2022-07-26T10:48:58.753Z,19.70
2022-07-26T10:54:06.127Z,19.90
2022-07-26T10:56:34.219Z,20.30
2022-07-26T10:59:03.348Z,20.30
2022-07-26T11:01:41.707Z,20.30
2022-07-26T11:04:21.354Z,20.30
2022-07-26T11:06:48.633Z,20.30
2022-07-26T11:09:16.172Z,20.30
2022-07-26T11:11:46.504Z,20.20
2022-07-26T11:14:17.066Z,20.30
2022-07-26T11:16:47.039Z,20.20
2022-07-26T11:19:19.472Z,20.20
2022-07-26T11:21:53.078Z,20.20
2022-07-26T11:24:21.959Z,20.10
2022-07-26T11:26:48.906Z,20.10
2022-07-26T11:29:25.580Z,20.20
2022-07-26T11:32:14.758Z,20.20
2022-07-26T11:34:45.530Z,20.30
2022-07-26T11:37:13.290Z,20.40
2022-07-26T11:39:40.491Z,20.50
2022-07-26T11:42:10.026Z,20.60
2022-07-26T11:44:37.213Z,20.50
2022-07-26T11:47:15.228Z,20.50
2022-07-26T11:50:09.746Z,20.50
2022-07-26T11:52:31.506Z,20.40
2022-07-26T11:54:58.689Z,20.50
2022-07-26T11:57:30.794Z,20.50
2022-07-26T11:59:59.007Z,20.50
2022-07-26T12:02:26.685Z,20.60
2022-07-26T12:05:22.645Z,20.60
2022-07-26T12:07:55.039Z,20.70
2022-07-26T12:10:21.971Z,20.80
2022-07-26T12:12:48.975Z,20.80
2022-07-26T12:15:15.885Z,20.90
2022-07-26T17:05:44.520Z,18.70
2022-07-26T17:08:11.491Z,18.60
2022-07-26T17:10:38.403Z,18.60
2022-07-26T17:13:05.292Z,18.50
2022-07-26T17:45:05.191Z,17.80
2022-07-26T17:55:18.578Z,17.60
2022-07-26T17:57:46.561Z,17.50
2022-07-26T18:00:13.937Z,17.50
2022-07-26T18:02:40.957Z,17.30
2022-07-26T18:10:03.161Z,17.70
2022-07-26T18:12:30.604Z,17.20
2022-07-26T18:17:24.984Z,17.00
2022-07-26T18:19:51.780Z,16.40
2022-07-26T18:22:18.677Z,16.90
2022-07-26T18:24:45.476Z,16.80
2022-07-26T18:32:07.063Z,16.60
2022-07-26T19:21:36.995Z,17.00
2022-07-26T19:24:04.087Z,16.00
2022-07-26T19:26:31.070Z,15.90
2022-07-26T19:28:57.861Z,15.90
2022-07-26T19:31:24.750Z,15.90
2022-07-26T19:36:25.388Z,15.80
2022-07-26T19:38:53.874Z,15.70
2022-07-26T19:46:15.350Z,15.70
2022-07-26T19:58:32.094Z,15.60
2022-07-26T20:00:58.949Z,15.30
2022-07-26T20:03:25.765Z,15.30
2022-07-26T20:05:53.750Z,15.20
2022-07-26T20:10:48.259Z,15.20
2022-07-26T20:13:15.223Z,15.10
2022-07-26T20:18:10.632Z,15.00
2022-07-26T20:20:37.578Z,14.90
2022-07-26T20:35:23.556Z,14.90
2022-07-26T20:42:45.612Z,14.70
2022-07-26T20:45:14.550Z,14.50
2022-07-26T20:47:42.895Z,14.50
2022-07-26T20:50:10.906Z,14.50
2022-07-26T20:55:05.755Z,14.40
2022-07-26T20:59:59.894Z,14.30
2022-07-26T21:02:27.012Z,14.20
2022-07-26T21:04:54.038Z,14.20
2022-07-26T21:07:20.937Z,14.10
2022-07-26T21:09:47.709Z,14.10
2022-07-26T21:12:14.543Z,14.10
2022-07-26T21:14:41.336Z,14.10
2022-07-26T21:17:11.911Z,14.00
2022-07-26T21:19:40.024Z,14.00
2022-07-26T21:22:07.395Z,14.00
2022-07-26T21:24:37.624Z,14.00
2022-07-26T21:27:05.762Z,14.00
2022-07-26T21:29:38.032Z,14.00
2022-07-26T21:32:06.535Z,14.00
2022-07-26T21:34:34.384Z,13.90
2022-07-26T21:37:03.821Z,13.90
2022-07-26T21:41:58.092Z,13.90
2022-07-26T21:44:25.126Z,13.80
2022-07-26T21:46:54.901Z,13.80
2022-07-26T21:49:21.935Z,13.80
2022-07-26T21:51:48.835Z,13.80
2022-07-26T21:54:15.673Z,13.80
2022-07-26T21:56:43.085Z,13.80
2022-07-26T21:59:10.149Z,13.80
2022-07-26T22:01:37.416Z,13.80
2022-07-26T22:04:04.493Z,13.80
2022-07-26T22:06:31.319Z,13.80
2022-07-26T22:08:58.511Z,13.80
2022-07-26T22:11:25.334Z,13.70
2022-07-26T22:13:52.463Z,13.70
2022-07-26T22:16:19.312Z,13.80
2022-07-26T22:18:46.195Z,13.70
2022-07-26T22:21:13.110Z,13.70
2022-07-26T22:23:39.877Z,13.70
2022-07-26T22:26:06.751Z,13.70
2022-07-26T22:28:34.382Z,13.70
2022-07-26T22:31:01.870Z,13.70
2022-07-26T22:33:28.708Z,13.70
2022-07-26T22:35:55.810Z,13.70
2022-07-26T22:38:22.641Z,13.70
2022-07-26T22:40:49.819Z,13.70
2022-07-26T22:43:16.749Z,13.70
2022-07-26T22:45:44.262Z,13.70
2022-07-26T22:48:11.218Z,13.70
2022-07-26T22:50:38.526Z,13.70
2022-07-26T22:53:05.518Z,13.70
2022-07-26T22:55:32.710Z,13.70
2022-07-26T22:58:00.328Z,13.70
2022-07-26T23:00:27.556Z,13.60
2022-07-26T23:02:54.424Z,13.60
2022-07-26T23:05:21.509Z,13.70
2022-07-26T23:07:53.155Z,13.60
2022-07-26T23:10:20.303Z,13.60
2022-07-26T23:12:47.307Z,13.60
2022-07-26T23:15:14.272Z,13.60
2022-07-26T23:17:41.207Z,13.60
2022-07-26T23:20:09.473Z,13.50
2022-07-26T23:22:36.491Z,13.50
2022-07-26T23:25:03.487Z,13.50
2022-07-26T23:27:30.273Z,13.50
2022-07-26T23:29:57.379Z,13.50
2022-07-26T23:32:24.197Z,13.40
2022-07-26T23:34:51.099Z,13.40
2022-07-26T23:37:18.402Z,13.40
2022-07-26T23:39:45.246Z,13.40
2022-07-26T23:44:39.168Z,13.30
2022-07-26T23:47:06.206Z,13.30
2022-07-26T23:49:33.144Z,13.30
2022-07-26T23:52:00.018Z,13.20
2022-07-26T23:54:26.891Z,13.20
2022-07-26T23:56:53.735Z,13.30
